Latest Weather Observations for Adelaide Airport

IDS60801

Issued at 3:11 pm CST Wednesday 20 June 2018 (issued every 10 minutes, with the page automatically refreshed every 10 minutes)

About weather observations | Map of weather stations | Latest weather observations for SA | Other Formats
Station Details ID: 023034 Name: ADELAIDE AIRPORT Lat: -34.95 Lon: 138.52 Height: 2.0 m
Data from the previous 72 hours. | See also: Recent months at Adelaide Airport
Date/Time
CST
Temp
°C
App
Temp
°C
Dew
Point
°C
Rel
Hum
%
Delta-T
°C
Wind Press
QNH
hPa
Press
MSL
hPa
Rain since
9am
mm
Dir  Spd
km/h
Gust
km/h
Spd
kts
Gust
kts
20/03:00pm 14.2 9.7 4.1 50 4.6 NW 17 22 9 12 1025.1 1025.1 0.0
20/02:30pm 14.5 9.8 3.4 47 5.0 NW 17 22 9 12 1024.8 1024.8 0.0
20/02:00pm 14.6 9.9 3.2 46 5.1 NNW 17 19 9 10 1024.9 1024.9 0.0
20/01:30pm 14.1 9.5 3.7 49 4.7 NNW 17 26 9 14 1024.9 1024.9 0.0
20/01:00pm 13.8 8.6 3.8 51 4.5 N 20 26 11 14 1025.1 1025.1 0.0
20/12:30pm 13.8 9.1 3.3 49 4.7 N 17 24 9 13 1025.2 1025.2 0.0
20/12:00pm 13.7 8.7 3.4 50 4.6 NNW 19 24 10 13 1025.6 1025.6 0.0
20/11:30am 13.4 8.0 2.7 48 4.7 N 20 28 11 15 1026.0 1026.0 0.0
20/11:00am 13.0 8.2 2.7 49 4.5 N 17 24 9 13 1026.2 1026.2 0.0
20/10:30am 12.0 7.1 2.2 51 4.2 NNE 17 24 9 13 1026.4 1026.4 0.0
20/10:00am 11.3 6.4 2.1 53 3.9 N 17 22 9 12 1026.6 1026.6 0.0
20/09:30am 10.5 5.6 1.9 55 3.6 N 17 24 9 13 1026.6 1026.6 0.0
20/09:00am 9.5 4.9 1.8 58 3.2 NNE 15 22 8 12 1026.4 1026.4 0.0
20/08:30am 8.7 4.5 1.9 62 2.8 NE 13 17 7 9 1025.6 1025.6 0.0
20/08:00am 8.5 3.6 1.9 63 2.7 NNE 17 20 9 11 1025.4 1025.4 0.0
20/07:30am 8.2 3.3 1.8 64 2.6 NNE 17 19 9 10 1025.4 1025.4 0.0
20/07:00am 8.3 3.4 1.7 63 2.7 NNE 17 24 9 13 1025.1 1025.1 0.0
20/06:30am 8.2 2.7 1.9 64 2.6 NNE 20 26 11 14 1025.0 1025.0 0.0
20/06:00am 8.0 3.1 1.9 65 2.5 NNE 17 19 9 10 1024.9 1024.9 0.0
20/05:30am 8.0 3.1 1.9 65 2.5 NNE 17 19 9 10 1024.6 1024.6 0.0
20/05:00am 8.3 3.4 1.7 63 2.7 NNE 17 20 9 11 1024.5 1024.5 0.0
20/04:30am 8.3 3.8 2.3 66 2.5 NNE 15 17 8 9 1024.4 1024.4 0.0
20/04:00am 8.6 4.1 2.4 65 2.6 NE 15 17 8 9 1024.5 1024.5 0.0
20/03:30am 8.8 4.4 2.6 65 2.6 NNE 15 17 8 9 1024.6 1024.6 0.0
20/03:00am 8.7 4.3 2.8 66 2.5 NE 15 17 8 9 1024.4 1024.4 0.0
20/02:30am 8.8 4.5 3.2 68 2.4 NE 15 17 8 9 1024.4 1024.4 0.0
20/02:00am 8.9 4.6 3.5 69 2.3 NE 15 17 8 9 1024.6 1024.6 0.0
20/01:30am 9.0 4.7 3.4 68 2.4 NE 15 17 8 9 1024.6 1024.6 0.0
20/01:00am 9.0 4.8 3.7 69 2.3 NE 15 15 8 8 1024.7 1024.7 0.0
20/12:30am 9.0 5.1 3.4 68 2.4 NE 13 15 7 8 1024.7 1024.7 0.0
20/12:00am 9.0 5.2 3.7 69 2.3 NE 13 15 7 8 1025.1 1025.1 0.0
 
Date/Time
CST
Temp
°C
App
Temp
°C
Dew
Point
°C
Rel
Hum
%
Delta-T
°C
Wind Press
QNH
hPa
Press
MSL
hPa
Rain since
9am
mm
Dir  Spd
km/h
Gust
km/h
Spd
kts
Gust
kts
19/11:30pm 9.4 5.5 3.6 67 2.5 NNE 13 15 7 8 1025.4 1025.4 0.0
19/11:00pm 9.2 5.3 3.4 67 2.5 N 13 19 7 10 1025.0 1025.0 0.0
19/10:30pm 9.7 5.7 2.9 62 2.9 N 13 17 7 9 1025.1 1025.1 0.0
19/10:00pm 10.1 6.1 2.6 59 3.2 N 13 17 7 9 1025.0 1025.0 0.0
19/09:30pm 9.8 5.8 2.7 61 3.0 NE 13 15 7 8 1024.8 1024.8 0.0
19/09:00pm 10.1 5.3 2.6 59 3.2 NE 17 19 9 10 1024.8 1024.8 0.0
19/08:30pm 10.1 5.8 3.1 62 3.0 NE 15 17 8 9 1025.0 1025.0 0.0
19/08:00pm 10.1 5.1 3.7 64 2.8 NE 19 24 10 13 1025.1 1025.1 0.0
19/07:30pm 10.4 5.4 3.5 62 3.0 NNE 19 28 10 15 1024.8 1024.8 0.0
19/07:00pm 10.5 5.5 3.6 62 3.0 NNE 19 26 10 14 1024.5 1024.5 0.0
19/06:30pm 10.6 5.6 3.8 63 3.0 NNE 19 24 10 13 1024.5 1024.5 0.0
19/06:00pm 10.8 5.9 4.0 63 3.0 NNE 19 26 10 14 1024.6 1024.6 0.0
19/05:30pm 11.0 6.4 3.7 60 3.2 NNE 17 24 9 13 1024.4 1024.4 0.0
19/05:00pm 11.8 6.8 3.4 56 3.7 N 19 26 10 14 1024.6 1024.6 0.0
19/04:30pm 12.0 7.3 3.1 54 3.9 N 17 24 9 13 1024.5 1024.5 0.0
19/04:00pm 12.3 6.6 2.9 52 4.1 N 22 28 12 15 1025.0 1025.0 0.0
19/03:30pm 12.6 6.9 3.0 52 4.2 N 22 32 12 17 1024.7 1024.7 0.0
19/03:00pm 12.5 6.5 3.5 54 4.0 NNW 24 33 13 18 1024.8 1024.8 0.0
19/02:30pm 12.3 6.8 3.8 56 3.8 N 22 30 12 16 1024.8 1024.8 0.0
19/02:00pm 12.4 6.3 3.0 52 4.1 N 24 32 13 17 1024.9 1024.9 0.0
19/01:30pm 13.1 6.5 2.3 48 4.7 NNW 26 32 14 17 1025.0 1025.0 0.0
19/01:00pm 13.1 7.0 2.6 49 4.6 NNW 24 33 13 18 1025.3 1025.3 0.0
19/12:30pm 12.6 6.9 2.7 51 4.3 N 22 30 12 16 1026.0 1026.0 0.0
19/12:00pm 12.1 7.1 3.5 55 3.8 N 19 26 10 14 1026.5 1026.5 0.0
19/11:30am 12.0 6.4 3.6 56 3.7 N 22 28 12 15 1027.1 1027.1 0.0
19/11:00am 11.3 6.2 3.3 58 3.5 N 19 28 10 15 1027.3 1027.3 0.0
19/10:30am 10.8 5.1 2.9 58 3.4 NNE 22 30 12 16 1027.3 1027.3 0.0
19/10:00am 10.7 5.1 3.3 60 3.2 N 22 30 12 16 1027.7 1027.7 0.0
19/09:30am 9.8 4.1 3.0 62 2.9 NNE 22 28 12 15 1027.6 1027.6 0.0
19/09:00am 9.2 3.9 3.1 65 2.6 NNE 20 26 11 14 1027.3 1027.3 0.0
19/08:30am 8.5 3.8 3.3 70 2.2 NE 17 20 9 11 1027.4 1027.4 0.0
19/08:00am 7.3 2.7 3.8 78 1.5 NE 17 20 9 11 1027.5 1027.5 0.0
19/07:30am 7.4 3.1 3.4 76 1.7 NE 15 19 8 10 1027.5 1027.5 0.0
19/07:00am 7.1 2.8 3.5 78 1.5 NE 15 19 8 10 1027.3 1027.3 0.0
19/06:30am 7.9 3.2 3.4 73 1.9 NE 17 19 9 10 1027.4 1027.4 0.0
19/06:00am 8.0 3.7 3.5 73 1.9 NE 15 17 8 9 1027.3 1027.3 0.0
19/05:30am 7.0 3.3 4.2 82 1.2 NE 13 17 7 9 1027.5 1027.5 0.0
19/05:00am 8.8 5.0 3.9 71 2.1 NNE 13 17 7 9 1027.8 1027.8 0.0
19/04:30am 9.3 5.5 3.7 68 2.4 NE 13 19 7 10 1027.5 1027.5 0.0
19/04:00am 9.7 5.9 4.0 67 2.5 NE 13 15 7 8 1028.0 1028.0 0.0
19/03:30am 9.7 6.7 4.0 67 2.5 NNE 9 13 5 7 1028.4 1028.4 0.0
19/03:00am 9.8 6.4 3.8 66 2.6 NE 11 15 6 8 1028.0 1028.0 0.0
19/02:30am 9.7 6.7 4.2 68 2.4 NE 9 13 5 7 1028.0 1028.0 0.0
19/02:00am 9.9 6.8 3.7 65 2.7 NNE 9 11 5 6 1028.3 1028.3 0.0
19/01:30am 9.7 6.0 4.5 70 2.3 NE 13 15 7 8 1028.1 1028.1 0.0
19/01:00am 9.9 6.2 4.2 67 2.5 NE 13 17 7 9 1028.6 1028.6 0.0
19/12:30am 9.9 7.0 4.7 70 2.3 NE 9 11 5 6 1028.3 1028.3 0.0
19/12:00am 10.2 5.7 4.0 65 2.7 E 17 22 9 12 1027.6 1027.6 0.0
 
Date/Time
CST
Temp
°C
App
Temp
°C
Dew
Point
°C
Rel
Hum
%
Delta-T
°C
Wind Press
QNH
hPa
Press
MSL
hPa
Rain since
9am
mm
Dir  Spd
km/h
Gust
km/h
Spd
kts
Gust
kts
18/11:30pm 10.6 6.5 4.5 66 2.7 ENE 15 19 8 10 1028.8 1028.8 0.0
18/11:00pm 10.7 8.2 4.9 67 2.6 NE 7 9 4 5 1029.8 1029.8 0.0
18/10:30pm 10.4 7.8 6.0 74 2.0 E 9 11 5 6 1029.5 1029.5 0.0
18/10:00pm 10.5 7.9 6.2 75 2.0 ESE 9 11 5 6 1029.4 1029.4 0.0
18/09:30pm 10.5 8.5 7.3 80 1.5 ENE 7 9 4 5 1029.3 1029.3 0.0
18/09:00pm 10.3 8.5 8.0 86 1.1 ENE 7 9 4 5 1028.7 1028.7 0.0
18/08:30pm 10.6 8.4 7.9 83 1.3 E 9 11 5 6 1028.1 1028.1 0.0
18/08:00pm 10.7 8.5 8.0 83 1.3 E 9 11 5 6 1028.3 1028.3 0.0
18/07:30pm 11.2 9.4 7.9 80 1.6 ENE 7 7 4 4 1028.7 1028.7 0.0
18/07:00pm 11.3 9.5 8.0 80 1.6 E 7 9 4 5 1028.9 1028.9 0.0
18/06:30pm 11.5 9.9 8.0 79 1.7 E 6 9 3 5 1028.8 1028.8 0.0
18/06:00pm 11.5 11.0 8.0 79 1.7 CALM 0 0 0 0 1028.9 1028.9 0.0
18/05:30pm 11.6 9.9 7.6 76 1.9 SW 6 9 3 5 1029.1 1029.1 0.0
18/05:00pm 11.6 9.7 7.6 76 1.9 W 7 7 4 4 1029.2 1029.2 0.0
18/04:30pm 11.7 10.0 7.5 75 2.0 WSW 6 9 3 5 1029.2 1029.2 0.0
18/04:00pm 11.8 9.5 7.4 74 2.1 WSW 9 11 5 6 1029.2 1029.2 0.0
18/03:30pm 11.8 10.1 7.4 74 2.1 WNW 6 11 3 6 1029.1 1029.1 0.0
18/03:00pm 11.9 9.9 7.1 72 2.3 W 7 11 4 6 1029.2 1029.2 0.0
18/02:30pm 11.9 9.2 7.3 73 2.2 W 11 13 6 7 1029.1 1029.1 0.0
18/02:00pm 11.9 9.6 7.5 74 2.1 WSW 9 13 5 7 1029.4 1029.4 0.0
18/01:30pm 11.7 8.6 7.3 74 2.1 W 13 15 7 8 1029.9 1029.9 0.0
18/01:00pm 11.7 9.3 7.1 73 2.2 WSW 9 11 5 6 1029.9 1029.9 0.0
18/12:30pm 11.7 9.3 6.8 72 2.3 W 9 11 5 6 1030.3 1030.3 0.0
18/12:00pm 11.7 9.7 7.1 73 2.2 NE 7 9 4 5 1030.8 1030.8 0.0
18/11:30am 12.3 10.4 6.8 69 2.6 SSE 6 11 3 6 1031.2 1031.2 0.0
18/11:00am 11.7 10.2 6.6 71 2.4 SE 4 9 2 5 1031.5 1031.5 0.0
18/10:30am 11.7 10.2 6.6 71 2.4 SE 4 7 2 4 1031.7 1031.7 0.0
18/10:00am 11.2 9.3 7.4 77 1.8 S 7 9 4 5 1031.8 1031.8 0.0
18/09:30am 10.4 8.5 7.4 82 1.4 SSW 7 11 4 6 1031.6 1031.6 0.0
18/09:00am 9.2 8.5 6.8 85 1.1 CALM 0 0 0 0 1031.5 1031.5 0.2
18/08:30am 8.6 7.8 6.6 87 0.9 CALM 0 0 0 0 1031.2 1031.2 0.2
18/08:00am 7.9 7.1 6.6 91 0.6 CALM 0 4 0 2 1031.0 1031.0 0.2
18/07:30am 6.7 5.7 5.6 93 0.5 CALM 0 0 0 0 1030.6 1030.6 0.2
18/07:00am 6.3 3.5 5.1 92 0.5 ESE 9 11 5 6 1030.0 1030.0 0.2
18/06:30am 7.4 5.1 5.6 88 0.8 S 7 9 4 5 1029.8 1029.8 0.2
18/06:00am 6.6 4.2 5.2 91 0.6 S 7 9 4 5 1029.6 1029.6 0.2
18/05:30am 6.0 3.5 4.6 91 0.6 SE 7 9 4 5 1029.6 1029.6 0.2
18/05:00am 5.7 3.1 4.0 89 0.7 SE 7 9 4 5 1029.7 1029.7 0.2
18/04:30am 6.9 4.0 4.6 85 1.0 SSE 9 9 5 5 1029.8 1029.8 0.2
18/04:00am 7.5 4.6 4.7 82 1.2 SSW 9 9 5 5 1029.6 1029.6 0.2
18/03:30am 8.3 5.4 4.6 77 1.6 SE 9 11 5 6 1029.8 1029.8 0.2
18/03:00am 9.5 6.6 4.5 71 2.2 S 9 13 5 7 1029.8 1029.8 0.2
18/02:30am 10.2 7.3 4.6 68 2.5 ESE 9 11 5 6 1029.5 1029.5 0.2
18/02:00am 10.3 7.4 4.4 67 2.6 SSW 9 11 5 6 1029.4 1029.4 0.2
18/01:30am 9.2 6.8 5.2 76 1.8 S 7 11 4 6 1029.5 1029.5 0.2
18/01:00am 9.3 6.8 5.0 74 1.9 SE 7 9 4 5 1029.5 1029.5 0.2
18/12:30am 10.6 6.8 4.0 63 2.9 SSW 13 13 7 7 1029.6 1029.6 0.2
18/12:00am 10.1 7.0 3.6 64 2.8 S 9 13 5 7 1029.6 1029.6 0.2
 
Date/Time
CST
Temp
°C
App
Temp
°C
Dew
Point
°C
Rel
Hum
%
Delta-T
°C
Wind Press
QNH
hPa
Press
MSL
hPa
Rain since
9am
mm
Dir  Spd
km/h
Gust
km/h
Spd
kts
Gust
kts
17/11:30pm 9.3 6.6 3.5 67 2.5 S 7 9 4 5 1029.8 1029.8 0.2
17/11:00pm 10.7 7.8 2.7 57 3.4 SSW 7 11 4 6 1029.9 1029.9 0.2
17/10:30pm 10.4 7.2 3.2 61 3.1 SSW 9 11 5 6 1029.8 1029.8 0.2
17/10:00pm 10.4 6.8 2.9 59 3.2 SSW 11 17 6 9 1029.7 1029.7 0.2
17/09:30pm 11.0 7.4 3.1 58 3.4 S 11 15 6 8 1029.8 1029.8 0.2
17/09:00pm 11.0 6.7 3.1 58 3.4 SSW 15 20 8 11 1029.7 1029.7 0.2
17/08:30pm 10.8 6.4 4.8 66 2.7 S 17 24 9 13 1029.6 1029.6 0.2
17/08:00pm 10.8 7.8 5.8 71 2.3 SSW 11 15 6 8 1029.5 1029.5 0.2
17/07:30pm 10.7 8.1 6.2 74 2.1 SSW 9 13 5 7 1029.2 1029.2 0.2
17/07:00pm 10.9 8.0 6.4 74 2.1 S 11 13 6 7 1029.2 1029.2 0.2
17/06:30pm 10.2 7.6 6.1 76 1.9 SSE 9 13 5 7 1028.7 1028.7 0.2
17/06:00pm 11.1 8.1 5.9 70 2.4 SSW 11 15 6 8 1028.6 1028.6 0.2
17/05:30pm 10.9 8.9 7.3 78 1.7 S 7 11 4 6 1028.4 1028.4 0.2
17/05:00pm 10.5 7.9 7.8 83 1.3 SSW 11 13 6 7 1028.2 1028.2 0.2
17/04:30pm 10.9 7.5 7.5 79 1.6 SSW 15 20 8 11 1028.0 1028.0 0.2
17/04:00pm 10.7 5.7 8.2 84 1.2 S 24 37 13 20 1027.9 1027.9 0.2
17/03:55pm 10.7 5.0 8.4 86 1.1 S 28 37 15 20 1028.0 1028.0 0.0
17/03:30pm 12.2 6.3 6.0 66 2.9 SSW 26 35 14 19 1027.7 1027.7 0.0

Other Formats:

Comma delimited format used in spreadsheet applications
http://www.bom.gov.au/fwo/IDS60801/IDS60801.94672.axf

JavaScript Object Notation format (JSON) in row-major order
http://www.bom.gov.au/fwo/IDS60801/IDS60801.94672.json